createdAt,value
2023-05-17T00:02:18.575Z,18.83
2023-05-17T00:04:48.503Z,16.40
2023-05-17T00:07:17.165Z,16.13
2023-05-17T00:09:45.748Z,18.53
2023-05-17T00:12:14.214Z,16.83
2023-05-17T00:14:42.713Z,17.30
2023-05-17T00:17:11.300Z,20.27
2023-05-17T00:19:39.857Z,17.53
2023-05-17T00:22:09.812Z,18.27
2023-05-17T00:24:38.335Z,16.73
2023-05-17T00:27:07.332Z,15.67
2023-05-17T00:29:35.863Z,15.50
2023-05-17T00:32:04.612Z,18.37
2023-05-17T00:34:33.184Z,17.20
2023-05-17T00:37:01.782Z,16.63
2023-05-17T00:39:31.766Z,16.93
2023-05-17T00:42:02.039Z,18.73
2023-05-17T00:44:30.527Z,18.00
2023-05-17T00:46:59.892Z,18.20
2023-05-17T00:49:28.786Z,18.70
2023-05-17T00:51:57.604Z,18.10
2023-05-17T00:54:27.065Z,16.93
2023-05-17T00:56:59.500Z,17.87
2023-05-17T00:59:30.130Z,17.57
2023-05-17T01:01:59.432Z,17.73
2023-05-17T01:04:27.932Z,18.77
2023-05-17T01:06:56.943Z,17.40
2023-05-17T01:09:25.632Z,17.77
2023-05-17T01:12:11.354Z,15.27
2023-05-17T01:14:52.631Z,16.67
2023-05-17T01:17:35.884Z,16.50
2023-05-17T01:20:38.153Z,17.83
2023-05-17T01:23:29.204Z,17.47
2023-05-17T01:26:09.323Z,15.37
2023-05-17T01:28:41.864Z,13.93
2023-05-17T01:31:11.698Z,17.73
2023-05-17T01:33:41.272Z,16.90
2023-05-17T01:36:10.534Z,17.80
2023-05-17T01:38:39.252Z,16.50
2023-05-17T01:41:17.420Z,17.40
2023-05-17T01:43:56.331Z,16.53
2023-05-17T01:46:32.093Z,17.07
2023-05-17T01:49:14.498Z,16.37
2023-05-17T01:51:50.193Z,16.47
2023-05-17T01:54:24.938Z,16.20
2023-05-17T01:57:00.129Z,17.20
2023-05-17T01:59:32.818Z,16.27
2023-05-17T02:02:06.274Z,15.40
2023-05-17T02:04:34.814Z,17.27
2023-05-17T02:07:03.743Z,15.83
2023-05-17T02:09:32.525Z,15.33
2023-05-17T02:12:01.527Z,14.57
2023-05-17T02:14:31.374Z,14.17
2023-05-17T02:16:59.944Z,14.00
2023-05-17T02:19:28.418Z,13.17
2023-05-17T02:21:57.009Z,15.53
2023-05-17T02:24:25.533Z,15.60
2023-05-17T02:26:54.133Z,15.10
2023-05-17T02:29:22.887Z,14.83
2023-05-17T02:31:52.792Z,15.20
2023-05-17T02:34:21.302Z,15.70
2023-05-17T02:36:49.856Z,16.33
2023-05-17T02:39:18.316Z,16.10
2023-05-17T02:42:12.047Z,15.07
2023-05-17T02:44:41.054Z,13.50
2023-05-17T02:47:11.015Z,15.67
2023-05-17T02:49:39.524Z,13.97
2023-05-17T02:52:08.324Z,15.80
2023-05-17T02:54:36.774Z,15.80
2023-05-17T02:57:05.850Z,15.20
2023-05-17T02:59:34.466Z,14.43
2023-05-17T03:02:03.123Z,13.80
2023-05-17T03:04:34.076Z,14.10
2023-05-17T03:07:05.086Z,16.40
2023-05-17T03:09:35.555Z,17.80
2023-05-17T03:12:04.179Z,15.90
2023-05-17T03:15:07.569Z,14.37
2023-05-17T03:17:36.806Z,14.83
2023-05-17T03:20:08.962Z,15.00
2023-05-17T03:22:37.513Z,13.40
2023-05-17T03:25:07.225Z,13.57
2023-05-17T03:27:35.853Z,11.63
2023-05-17T03:30:04.723Z,13.10
2023-05-17T03:32:33.437Z,12.37
2023-05-17T03:35:02.083Z,16.80
2023-05-17T03:37:32.062Z,17.07
2023-05-17T03:40:00.664Z,17.27
2023-05-17T03:42:54.228Z,14.03
2023-05-17T03:45:22.866Z,14.60
2023-05-17T03:47:51.483Z,14.67
2023-05-17T03:50:23.451Z,14.17
2023-05-17T03:52:53.319Z,15.43
2023-05-17T03:55:21.999Z,15.07
2023-05-17T03:57:52.484Z,14.37
2023-05-17T04:00:22.380Z,12.50
2023-05-17T04:02:52.952Z,12.03
2023-05-17T04:05:22.016Z,12.87
2023-05-17T04:07:50.554Z,14.47
2023-05-17T04:10:20.485Z,24.03
2023-05-17T04:12:49.933Z,24.07
2023-05-17T04:15:18.450Z,17.80
2023-05-17T04:17:47.004Z,14.60
2023-05-17T04:20:15.838Z,12.97
2023-05-17T04:22:44.368Z,17.17
2023-05-17T04:25:13.223Z,17.53
2023-05-17T04:27:43.361Z,18.50
2023-05-17T04:30:13.259Z,17.30
2023-05-17T04:32:43.283Z,16.53
2023-05-17T04:35:12.326Z,15.97
2023-05-17T04:37:40.768Z,14.87
2023-05-17T04:40:12.940Z,19.37
2023-05-17T04:42:42.923Z,20.20
2023-05-17T04:45:22.300Z,20.33
2023-05-17T04:48:07.789Z,18.37
2023-05-17T04:50:36.812Z,15.40
2023-05-17T04:53:05.423Z,14.47
2023-05-17T04:55:33.891Z,17.20
2023-05-17T04:58:28.361Z,16.70
2023-05-17T05:00:57.599Z,17.00
2023-05-17T05:03:26.673Z,13.83
2023-05-17T05:05:55.287Z,16.50
2023-05-17T05:08:27.818Z,16.10
2023-05-17T05:10:56.311Z,14.03
2023-05-17T05:13:24.822Z,13.53
2023-05-17T05:15:54.684Z,15.30
2023-05-17T05:18:23.303Z,13.90
2023-05-17T05:20:52.073Z,16.07
2023-05-17T05:23:20.538Z,16.37
2023-05-17T05:25:49.117Z,13.47
2023-05-17T05:28:17.814Z,14.57
2023-05-17T05:30:46.310Z,14.50
2023-05-17T05:33:16.178Z,14.13
2023-05-17T05:35:44.778Z,16.27
2023-05-17T05:38:13.774Z,13.97
2023-05-17T05:40:42.758Z,16.13
2023-05-17T05:43:11.363Z,17.53
2023-05-17T05:45:41.274Z,18.07
2023-05-17T05:48:09.993Z,19.07
2023-05-17T05:50:40.060Z,17.43
2023-05-17T05:53:18.606Z,18.43
2023-05-17T05:55:48.298Z,18.07
2023-05-17T05:58:16.910Z,19.27
2023-05-17T06:00:45.464Z,19.57
2023-05-17T06:03:13.929Z,18.03
2023-05-17T06:05:44.158Z,20.07
2023-05-17T06:08:12.831Z,17.33
2023-05-17T06:10:41.438Z,17.83
2023-05-17T06:13:10.087Z,18.57
2023-05-17T06:15:38.566Z,18.00
2023-05-17T06:18:07.355Z,16.87
2023-05-17T06:20:36.201Z,17.03
2023-05-17T06:23:07.077Z,17.93
2023-05-17T06:25:35.634Z,17.50
2023-05-17T06:28:28.963Z,17.40
2023-05-17T06:30:57.436Z,16.60
2023-05-17T06:33:26.142Z,17.67
2023-05-17T06:35:57.564Z,18.73
2023-05-17T06:38:27.923Z,17.70
2023-05-17T06:40:58.593Z,16.17
2023-05-17T06:43:27.435Z,16.57
2023-05-17T06:45:58.724Z,14.53
2023-05-17T06:48:27.595Z,14.43
2023-05-17T06:50:56.267Z,13.90
2023-05-17T06:53:27.233Z,14.90
2023-05-17T06:55:57.612Z,15.07
2023-05-17T06:58:26.554Z,13.73
2023-05-17T07:00:55.318Z,12.50
2023-05-17T07:03:23.887Z,11.20
2023-05-17T07:05:52.425Z,10.47
2023-05-17T07:08:21.050Z,10.93
2023-05-17T07:11:15.884Z,10.77
2023-05-17T07:13:44.553Z,11.30
2023-05-17T07:16:13.519Z,11.10
2023-05-17T07:18:42.138Z,12.27
2023-05-17T07:21:11.084Z,12.30
2023-05-17T07:23:39.643Z,11.20
2023-05-17T07:26:13.687Z,10.23
2023-05-17T07:28:44.302Z,10.20
2023-05-17T07:31:12.912Z,11.07
2023-05-17T07:33:41.417Z,11.00
2023-05-17T07:36:10.600Z,10.13
2023-05-17T07:39:01.740Z,9.57
2023-05-17T07:41:31.740Z,9.70
2023-05-17T07:44:01.634Z,9.30
2023-05-17T07:46:33.618Z,10.17
2023-05-17T07:49:02.314Z,10.43
2023-05-17T07:51:31.849Z,10.77
2023-05-17T07:54:03.172Z,11.13
2023-05-17T07:56:34.905Z,9.97
2023-05-17T07:59:04.918Z,10.30
2023-05-17T08:01:33.484Z,11.10
2023-05-17T08:04:02.003Z,11.37
2023-05-17T08:06:30.564Z,10.70
2023-05-17T08:09:24.188Z,10.93
2023-05-17T08:11:52.683Z,12.50
2023-05-17T08:14:24.358Z,12.80
2023-05-17T08:16:52.855Z,12.50
2023-05-17T08:19:21.422Z,11.90
2023-05-17T08:21:50.063Z,11.23
2023-05-17T08:24:47.598Z,11.13
2023-05-17T08:27:16.164Z,10.90
2023-05-17T08:29:46.355Z,10.70
2023-05-17T08:32:14.936Z,9.67
2023-05-17T08:34:43.508Z,11.10
2023-05-17T08:37:12.517Z,10.13
2023-05-17T08:39:41.350Z,10.53
2023-05-17T08:42:10.560Z,11.27
2023-05-17T08:44:39.818Z,11.47
2023-05-17T08:47:14.626Z,10.77
2023-05-17T08:49:45.293Z,11.03
2023-05-17T08:52:16.434Z,11.13
2023-05-17T08:54:45.122Z,11.03
2023-05-17T08:57:15.490Z,10.40
2023-05-17T08:59:45.436Z,11.50
2023-05-17T09:02:16.840Z,10.93
2023-05-17T09:04:45.627Z,11.20
2023-05-17T09:07:16.635Z,10.40
2023-05-17T09:09:46.158Z,10.27
2023-05-17T09:12:15.607Z,11.10
2023-05-17T09:14:44.075Z,10.07
2023-05-17T09:17:17.850Z,10.67
2023-05-17T09:19:47.807Z,8.93
2023-05-17T09:22:19.039Z,7.67
2023-05-17T09:24:47.895Z,9.20
2023-05-17T09:27:18.927Z,9.20
2023-05-17T09:29:48.442Z,9.43
2023-05-17T09:32:20.998Z,8.90
2023-05-17T09:34:51.120Z,8.67
2023-05-17T09:37:20.857Z,8.87
2023-05-17T09:39:50.326Z,8.30
2023-05-17T09:42:19.424Z,19.47
2023-05-17T09:44:51.013Z,12.93
2023-05-17T09:47:29.570Z,9.40
2023-05-17T09:50:20.181Z,8.40
2023-05-17T09:52:48.819Z,9.00
2023-05-17T09:55:17.476Z,8.80
2023-05-17T09:57:47.190Z,9.70
2023-05-17T10:00:19.667Z,9.63
2023-05-17T10:02:52.176Z,9.40
2023-05-17T10:05:22.695Z,10.43
2023-05-17T10:07:52.570Z,9.43
2023-05-17T10:10:21.530Z,8.23
2023-05-17T10:12:51.392Z,8.30
2023-05-17T10:15:45.713Z,8.73
2023-05-17T10:18:17.380Z,9.30
2023-05-17T10:20:46.817Z,9.43
2023-05-17T10:23:17.014Z,9.47
2023-05-17T10:25:46.554Z,7.87
2023-05-17T10:28:18.958Z,8.17
2023-05-17T10:30:49.982Z,8.30
2023-05-17T10:33:22.470Z,8.80
2023-05-17T10:35:52.734Z,7.93
2023-05-17T10:38:24.057Z,8.40
2023-05-17T10:41:00.542Z,8.13
2023-05-17T10:43:32.979Z,8.10
2023-05-17T10:46:02.657Z,8.00
2023-05-17T10:48:32.542Z,7.13
2023-05-17T10:51:08.478Z,7.47
2023-05-17T10:54:07.051Z,7.70
2023-05-17T10:56:36.090Z,8.10
2023-05-17T10:59:24.756Z,7.40
2023-05-17T11:01:56.173Z,7.20
2023-05-17T11:04:33.746Z,7.30
2023-05-17T11:07:27.140Z,7.40
2023-05-17T11:10:06.241Z,7.23
2023-05-17T11:12:38.425Z,7.67
2023-05-17T11:15:11.060Z,7.37
2023-05-17T11:17:51.717Z,8.13
2023-05-17T11:20:36.825Z,8.23
2023-05-17T11:23:07.806Z,7.40
2023-05-17T11:25:37.963Z,8.27
2023-05-17T11:28:11.372Z,7.97
2023-05-17T11:30:51.258Z,8.03
2023-05-17T11:33:33.142Z,8.90
2023-05-17T11:36:16.707Z,9.00
2023-05-17T11:38:46.608Z,8.90
2023-05-17T11:41:26.924Z,9.63
2023-05-17T11:43:56.826Z,9.73
2023-05-17T11:46:26.156Z,9.30
2023-05-17T11:48:55.199Z,9.60
2023-05-17T11:51:25.751Z,9.83
2023-05-17T11:53:56.698Z,10.07
2023-05-17T11:56:35.629Z,10.10
2023-05-17T11:59:11.490Z,9.00
2023-05-17T12:01:47.865Z,9.07
2023-05-17T12:04:24.988Z,9.03
2023-05-17T12:06:59.138Z,8.50
2023-05-17T12:09:27.857Z,8.67
2023-05-17T12:11:57.312Z,8.33
2023-05-17T12:14:26.103Z,9.40
2023-05-17T12:16:58.010Z,7.70
2023-05-17T12:19:29.851Z,7.93
2023-05-17T12:22:29.813Z,7.70
2023-05-17T12:24:58.542Z,8.07
2023-05-17T12:27:28.254Z,8.77
2023-05-17T12:29:56.902Z,8.40
2023-05-17T12:32:26.317Z,8.50
2023-05-17T12:34:55.184Z,8.97
2023-05-17T12:37:24.027Z,8.17
2023-05-17T12:39:54.143Z,8.60
2023-05-17T12:42:23.221Z,8.77
2023-05-17T12:44:51.913Z,8.30
2023-05-17T12:47:20.734Z,8.27
2023-05-17T12:49:56.218Z,8.20
2023-05-17T12:52:24.771Z,8.13
2023-05-17T12:54:54.732Z,8.03
2023-05-17T12:57:23.299Z,7.90
2023-05-17T12:59:54.496Z,8.10
2023-05-17T13:02:24.045Z,7.43
2023-05-17T13:04:52.878Z,8.13
2023-05-17T13:07:25.946Z,8.17
2023-05-17T13:09:55.900Z,8.93
2023-05-17T13:12:25.844Z,7.13
2023-05-17T13:14:55.530Z,6.33
2023-05-17T13:17:28.125Z,7.73
2023-05-17T13:19:58.265Z,8.10
2023-05-17T13:22:27.936Z,8.10
2023-05-17T13:25:08.131Z,7.70
2023-05-17T13:27:36.832Z,7.87
2023-05-17T13:30:06.819Z,8.27
2023-05-17T13:32:35.586Z,7.47
2023-05-17T13:35:04.389Z,6.57
2023-05-17T13:37:33.038Z,6.50
2023-05-17T13:40:01.731Z,6.37
2023-05-17T13:42:32.073Z,5.57
2023-05-17T13:45:01.619Z,6.00
2023-05-17T13:47:32.151Z,6.10
2023-05-17T13:50:01.815Z,6.90
2023-05-17T13:52:31.148Z,8.07
2023-05-17T13:54:59.679Z,7.43
2023-05-17T13:57:28.238Z,7.80
2023-05-17T13:59:58.147Z,8.37
2023-05-17T14:02:26.731Z,7.83
2023-05-17T14:04:55.521Z,7.57
2023-05-17T14:07:24.116Z,7.37
2023-05-17T14:09:53.058Z,6.73
2023-05-17T14:12:21.670Z,6.67
2023-05-17T14:14:50.277Z,6.60
2023-05-17T14:17:20.386Z,7.13
2023-05-17T14:19:49.096Z,6.70
2023-05-17T14:22:17.772Z,7.77
2023-05-17T14:24:46.372Z,6.60
2023-05-17T14:27:15.006Z,6.90
2023-05-17T14:29:43.665Z,7.33
2023-05-17T14:32:14.254Z,6.50
2023-05-17T14:34:44.279Z,7.20
2023-05-17T14:37:14.108Z,7.27
2023-05-17T14:39:47.399Z,7.33
2023-05-17T14:42:20.863Z,6.17
2023-05-17T14:44:49.462Z,6.17
2023-05-17T14:47:18.036Z,6.60
2023-05-17T14:49:48.185Z,7.20
2023-05-17T14:52:16.947Z,6.93
2023-05-17T14:54:45.760Z,6.27
2023-05-17T14:57:14.550Z,6.83
2023-05-17T14:59:45.176Z,5.80
2023-05-17T15:02:14.209Z,5.10
2023-05-17T15:04:42.952Z,5.93
2023-05-17T15:07:13.054Z,4.87
2023-05-17T15:09:43.172Z,4.70
2023-05-17T15:12:14.225Z,5.13
2023-05-17T15:14:43.511Z,5.27
2023-05-17T15:17:12.294Z,5.17
2023-05-17T15:19:41.347Z,4.70
2023-05-17T15:22:10.653Z,5.50
2023-05-17T15:24:40.707Z,6.20
2023-05-17T15:27:12.695Z,6.50
2023-05-17T15:29:42.378Z,7.37
2023-05-17T15:32:11.351Z,7.53
2023-05-17T15:34:39.810Z,7.83
2023-05-17T15:37:08.379Z,7.37
2023-05-17T15:39:36.980Z,7.90
2023-05-17T15:42:07.485Z,8.93
2023-05-17T15:44:36.232Z,7.80
2023-05-17T15:47:42.490Z,8.73
2023-05-17T15:50:13.116Z,8.63
2023-05-17T15:52:41.773Z,7.40
2023-05-17T15:55:11.380Z,7.70
2023-05-17T15:58:09.559Z,7.37
2023-05-17T16:00:38.622Z,7.53
2023-05-17T16:03:07.220Z,7.23
2023-05-17T16:05:35.797Z,8.27
2023-05-17T16:08:04.384Z,8.50
2023-05-17T16:10:45.623Z,8.57
2023-05-17T16:13:15.771Z,8.77
2023-05-17T16:15:44.448Z,8.00
2023-05-17T16:18:15.047Z,9.17
2023-05-17T16:20:43.836Z,6.37
2023-05-17T16:23:12.967Z,6.63
2023-05-17T16:25:41.637Z,6.63
2023-05-17T16:28:10.274Z,6.33
2023-05-17T16:30:40.301Z,7.43
2023-05-17T16:33:09.250Z,4.77
2023-05-17T16:35:37.945Z,2.57
2023-05-17T16:38:06.533Z,2.33
2023-05-17T16:40:41.166Z,2.00
2023-05-17T16:43:09.972Z,3.17
2023-05-17T16:45:39.888Z,3.40
2023-05-17T16:48:08.548Z,2.70
2023-05-17T16:50:37.117Z,2.60
2023-05-17T16:53:05.660Z,2.30
2023-05-17T16:55:34.978Z,4.40
2023-05-17T16:58:03.710Z,5.77
2023-05-17T17:00:32.817Z,7.20
2023-05-17T17:03:02.936Z,4.60
2023-05-17T17:05:31.790Z,2.30
2023-05-17T17:08:00.396Z,2.60
2023-05-17T17:10:29.161Z,2.47
2023-05-17T17:12:57.910Z,2.10
2023-05-17T17:15:26.893Z,2.40
2023-05-17T17:17:55.462Z,2.33
2023-05-17T17:20:25.519Z,5.63
2023-05-17T17:22:55.796Z,2.87
2023-05-17T17:25:25.133Z,2.30
2023-05-17T17:27:53.772Z,4.10
2023-05-17T17:30:22.375Z,5.33
2023-05-17T17:32:51.037Z,2.40
2023-05-17T17:35:19.731Z,1.97
2023-05-17T17:37:49.690Z,1.90
2023-05-17T17:40:18.379Z,2.30
2023-05-17T17:42:47.317Z,2.23
2023-05-17T17:45:15.963Z,2.07
2023-05-17T17:47:44.631Z,2.00
2023-05-17T17:50:38.460Z,2.10
2023-05-17T17:53:08.446Z,2.10
2023-05-17T17:55:36.905Z,1.90
2023-05-17T17:58:30.922Z,2.10
2023-05-17T18:00:59.570Z,2.00
2023-05-17T18:03:33.168Z,1.87
2023-05-17T18:06:01.721Z,2.30
2023-05-17T18:08:57.655Z,2.43
2023-05-17T18:11:26.344Z,2.83
2023-05-17T18:13:56.651Z,3.67
2023-05-17T18:16:25.322Z,13.30
2023-05-17T18:18:57.933Z,9.90
2023-05-17T18:21:28.430Z,5.97
2023-05-17T18:23:58.361Z,7.20
2023-05-17T18:26:27.199Z,3.70
2023-05-17T18:29:21.004Z,2.73
2023-05-17T18:31:49.920Z,2.47
2023-05-17T18:34:19.719Z,2.70
2023-05-17T18:36:48.524Z,6.10
2023-05-17T18:39:18.400Z,4.83
2023-05-17T18:41:46.942Z,3.07
2023-05-17T18:44:16.893Z,3.43
2023-05-17T18:46:46.708Z,2.80
2023-05-17T18:49:15.757Z,2.63
2023-05-17T18:51:46.693Z,2.80
2023-05-17T18:54:15.458Z,2.33
2023-05-17T18:56:45.493Z,2.30
2023-05-17T18:59:14.289Z,2.60
2023-05-17T19:01:43.860Z,4.10
2023-05-17T19:04:12.479Z,4.17
2023-05-17T19:06:42.337Z,3.20
2023-05-17T19:09:10.932Z,3.00
2023-05-17T19:11:46.730Z,2.73
2023-05-17T19:14:15.863Z,2.73
2023-05-17T19:16:45.474Z,2.83
2023-05-17T19:19:14.088Z,2.50
2023-05-17T19:21:42.711Z,2.57
2023-05-17T19:24:11.281Z,2.93
2023-05-17T19:26:39.843Z,2.60
2023-05-17T19:29:09.853Z,3.20
2023-05-17T19:31:38.556Z,3.70
2023-05-17T19:34:07.229Z,3.93
2023-05-17T19:36:35.820Z,3.70
2023-05-17T19:39:04.566Z,4.20
2023-05-17T19:41:33.219Z,4.50
2023-05-17T19:44:01.988Z,4.43
2023-05-17T19:46:31.935Z,4.33
2023-05-17T19:49:00.700Z,5.30
2023-05-17T19:51:29.714Z,5.93
2023-05-17T19:53:58.532Z,5.17
2023-05-17T19:56:27.644Z,5.97
2023-05-17T19:58:56.205Z,4.97
2023-05-17T20:01:24.833Z,6.00
2023-05-17T20:03:54.993Z,4.67
2023-05-17T20:06:23.769Z,4.93
2023-05-17T20:08:52.342Z,4.17
2023-05-17T20:11:21.497Z,3.97
2023-05-17T20:13:50.052Z,3.60
2023-05-17T20:16:28.046Z,3.43
2023-05-17T20:18:59.254Z,3.13
2023-05-17T20:21:28.175Z,3.67
2023-05-17T20:24:01.652Z,3.30
2023-05-17T20:26:32.135Z,2.90
2023-05-17T20:29:00.975Z,3.73
2023-05-17T20:31:29.698Z,3.40
2023-05-17T20:33:59.809Z,3.57
2023-05-17T20:36:28.569Z,4.40
2023-05-17T20:38:57.121Z,3.60
2023-05-17T20:41:25.701Z,3.80
2023-05-17T20:44:05.867Z,4.30
2023-05-17T20:46:35.461Z,4.00
2023-05-17T20:49:05.502Z,5.40
2023-05-17T20:52:03.082Z,7.17
2023-05-17T20:54:32.001Z,4.53
2023-05-17T20:57:00.701Z,4.53
2023-05-17T20:59:29.451Z,7.73
2023-05-17T21:01:58.178Z,4.23
2023-05-17T21:04:28.287Z,4.93
2023-05-17T21:07:00.021Z,4.57
2023-05-17T21:09:28.598Z,4.87
2023-05-17T21:11:57.097Z,2.87
2023-05-17T21:14:25.824Z,2.90
2023-05-17T21:16:55.618Z,2.60
2023-05-17T21:19:24.421Z,2.23
2023-05-17T21:21:54.598Z,2.33
2023-05-17T21:24:23.543Z,2.30
2023-05-17T21:26:52.054Z,2.43
2023-05-17T21:29:20.643Z,2.40
2023-05-17T21:31:49.348Z,2.70
2023-05-17T21:34:38.667Z,2.20
2023-05-17T21:37:08.694Z,2.20
2023-05-17T21:39:37.231Z,2.60
2023-05-17T21:42:06.512Z,2.70
2023-05-17T21:44:35.173Z,2.57
2023-05-17T21:47:03.877Z,3.70
2023-05-17T21:49:32.514Z,3.60
2023-05-17T21:52:01.067Z,3.30
2023-05-17T21:54:30.944Z,3.13
2023-05-17T21:56:59.511Z,3.67
2023-05-17T21:59:28.153Z,3.40
2023-05-17T22:01:57.327Z,3.43
2023-05-17T22:04:26.145Z,3.50
2023-05-17T22:06:56.074Z,3.40
2023-05-17T22:09:24.648Z,3.10
2023-05-17T22:11:58.179Z,3.40
2023-05-17T22:14:26.903Z,4.00
2023-05-17T22:16:56.095Z,4.17
2023-05-17T22:19:24.810Z,3.70
2023-05-17T22:21:53.458Z,4.10
2023-05-17T22:24:21.988Z,3.23
2023-05-17T22:26:50.573Z,3.23
2023-05-17T22:29:20.795Z,3.97
2023-05-17T22:31:50.256Z,3.00
2023-05-17T22:34:18.907Z,3.00
2023-05-17T22:36:47.498Z,2.63
2023-05-17T22:39:16.028Z,2.70
2023-05-17T22:41:44.571Z,3.10
2023-05-17T22:44:13.136Z,2.60
2023-05-17T22:46:44.078Z,2.53
2023-05-17T22:49:12.580Z,2.47
2023-05-17T22:51:41.284Z,2.80
2023-05-17T22:54:09.911Z,3.17
2023-05-17T22:56:38.515Z,2.80
2023-05-17T22:59:07.109Z,2.60
2023-05-17T23:01:35.743Z,2.30
2023-05-17T23:04:06.035Z,2.33
2023-05-17T23:06:35.153Z,2.53
2023-05-17T23:09:33.528Z,2.23
2023-05-17T23:12:05.723Z,2.43
2023-05-17T23:14:36.300Z,2.53
2023-05-17T23:17:05.397Z,2.00
2023-05-17T23:19:35.425Z,1.77
2023-05-17T23:22:06.350Z,2.30
2023-05-17T23:24:38.684Z,2.13
2023-05-17T23:27:10.039Z,2.10
2023-05-17T23:29:41.454Z,1.60
2023-05-17T23:32:10.057Z,1.23
2023-05-17T23:34:42.756Z,1.83
2023-05-17T23:37:11.500Z,1.70
2023-05-17T23:39:40.134Z,1.60
2023-05-17T23:42:10.323Z,1.80
2023-05-17T23:44:42.082Z,1.70
2023-05-17T23:47:12.434Z,1.60
2023-05-17T23:49:42.551Z,1.90
2023-05-17T23:52:12.279Z,1.53
2023-05-17T23:54:41.493Z,1.50
2023-05-17T23:57:10.601Z,1.50
2023-05-17T23:59:39.170Z,1.60
